sensor_id;sensor_type;location;lat;lon;timestamp;pressure;altitude;pressure_sealevel;temperature;humidity
7333;BME280;3707;43.618;25.342;2023-01-19T00:00:21;99111.59;;;15.46;100.00
7333;BME280;3707;43.618;25.342;2023-01-19T00:02:48;99105.50;;;15.47;100.00
7333;BME280;3707;43.618;25.342;2023-01-19T00:05:15;99113.41;;;15.44;100.00
7333;BME280;3707;43.618;25.342;2023-01-19T00:07:42;99112.44;;;15.48;100.00
7333;BME280;3707;43.618;25.342;2023-01-19T00:10:09;99095.13;;;15.44;100.00
7333;BME280;3707;43.618;25.342;2023-01-19T00:12:38;99103.66;;;15.53;100.00
7333;BME280;3707;43.618;25.342;2023-01-19T00:15:05;99111.56;;;15.49;100.00
7333;BME280;3707;43.618;25.342;2023-01-19T00:17:32;99110.66;;;15.51;100.00
7333;BME280;3707;43.618;25.342;2023-01-19T00:19:59;99118.53;;;15.50;100.00
7333;BME280;3707;43.618;25.342;2023-01-19T00:22:26;99112.41;;;15.51;100.00
7333;BME280;3707;43.618;25.342;2023-01-19T00:24:53;99116.69;;;15.55;100.00
7333;BME280;3707;43.618;25.342;2023-01-19T00:27:19;99118.47;;;15.53;100.00
7333;BME280;3707;43.618;25.342;2023-01-19T00:29:47;99118.47;;;15.53;100.00
7333;BME280;3707;43.618;25.342;2023-01-19T00:32:14;99129.84;;;15.49;100.00
7333;BME280;3707;43.618;25.342;2023-01-19T00:34:42;99128.91;;;15.53;100.00
7333;BME280;3707;43.618;25.342;2023-01-19T00:37:14;99127.94;;;15.58;100.00
7333;BME280;3707;43.618;25.342;2023-01-19T00:39:41;99123.78;;;15.45;100.00
7333;BME280;3707;43.618;25.342;2023-01-19T00:42:09;99133.16;;;15.58;100.00
7333;BME280;3707;43.618;25.342;2023-01-19T00:44:55;99139.25;;;15.59;100.00
7333;BME280;3707;43.618;25.342;2023-01-19T00:47:23;99146.25;;;15.57;100.00
7333;BME280;3707;43.618;25.342;2023-01-19T00:49:50;99132.56;;;15.44;100.00
7333;BME280;3707;43.618;25.342;2023-01-19T00:52:16;99142.91;;;15.49;100.00
7333;BME280;3707;43.618;25.342;2023-01-19T00:54:43;99139.44;;;15.50;100.00
7333;BME280;3707;43.618;25.342;2023-01-19T00:57:10;99110.88;;;15.39;100.00
7333;BME280;3707;43.618;25.342;2023-01-19T00:59:37;99149.81;;;15.53;100.00
7333;BME280;3707;43.618;25.342;2023-01-19T01:02:05;99138.47;;;15.54;100.00
7333;BME280;3707;43.618;25.342;2023-01-19T01:04:32;99115.28;;;15.35;100.00
7333;BME280;3707;43.618;25.342;2023-01-19T01:06:59;99136.84;;;15.47;100.00
7333;BME280;3707;43.618;25.342;2023-01-19T01:09:26;99103.19;;;15.31;100.00
7333;BME280;3707;43.618;25.342;2023-01-19T01:11:52;99114.38;;;15.38;100.00
7333;BME280;3707;43.618;25.342;2023-01-19T01:14:19;99139.44;;;15.50;100.00
7333;BME280;3707;43.618;25.342;2023-01-19T01:16:46;99128.22;;;15.42;100.00
7333;BME280;3707;43.618;25.342;2023-01-19T01:19:14;99128.28;;;15.40;100.00
7333;BME280;3707;43.618;25.342;2023-01-19T01:21:41;99132.56;;;15.43;100.00
7333;BME280;3707;43.618;25.342;2023-01-19T01:24:08;99051.66;;;14.97;100.00
7333;BME280;3707;43.618;25.342;2023-01-19T01:26:35;99132.56;;;15.43;100.00
7333;BME280;3707;43.618;25.342;2023-01-19T01:29:03;99107.31;;;15.42;100.00
7333;BME280;3707;43.618;25.342;2023-01-19T01:31:30;99131.69;;;15.44;100.00
7333;BME280;3707;43.618;25.342;2023-01-19T01:33:57;99126.47;;;15.44;100.00
7333;BME280;3707;43.618;25.342;2023-01-19T01:36:25;99125.41;;;15.54;100.00
7333;BME280;3707;43.618;25.342;2023-01-19T01:38:53;99116.22;;;15.33;100.00
7333;BME280;3707;43.618;25.342;2023-01-19T01:41:20;99129.78;;;15.53;100.00
7333;BME280;3707;43.618;25.342;2023-01-19T01:43:48;99129.75;;;15.55;100.00
7333;BME280;3707;43.618;25.342;2023-01-19T01:46:16;99131.69;;;15.42;100.00
7333;BME280;3707;43.618;25.342;2023-01-19T01:48:48;99123.94;;;15.37;100.00
7333;BME280;3707;43.618;25.342;2023-01-19T01:51:21;99133.44;;;15.43;100.00
7333;BME280;3707;43.618;25.342;2023-01-19T01:53:59;99136.19;;;15.35;100.00
7333;BME280;3707;43.618;25.342;2023-01-19T01:56:31;99096.28;;;15.29;100.00
7333;BME280;3707;43.618;25.342;2023-01-19T01:59:02;99112.53;;;15.43;100.00
7333;BME280;3707;43.618;25.342;2023-01-19T02:01:30;99118.69;;;15.41;100.00
7333;BME280;3707;43.618;25.342;2023-01-19T02:04:14;99094.00;;;15.12;100.00
7333;BME280;3707;43.618;25.342;2023-01-19T02:06:41;99118.00;;;15.31;100.00
7333;BME280;3707;43.618;25.342;2023-01-19T02:09:28;99120.72;;;15.26;100.00
7333;BME280;3707;43.618;25.342;2023-01-19T02:12:15;99123.31;;;15.26;100.00
7333;BME280;3707;43.618;25.342;2023-01-19T02:15:00;99123.25;;;15.29;100.00
7333;BME280;3707;43.618;25.342;2023-01-19T02:17:26;99135.31;;;15.36;100.00
7333;BME280;3707;43.618;25.342;2023-01-19T02:19:53;99129.31;;;15.31;100.00
7333;BME280;3707;43.618;25.342;2023-01-19T02:22:24;99144.81;;;15.41;100.00
7333;BME280;3707;43.618;25.342;2023-01-19T02:24:55;99145.63;;;15.43;100.00
7333;BME280;3707;43.618;25.342;2023-01-19T02:27:23;99148.25;;;15.43;100.00
7333;BME280;3707;43.618;25.342;2023-01-19T02:29:50;99132.69;;;15.36;100.00
7333;BME280;3707;43.618;25.342;2023-01-19T02:32:17;99146.41;;;15.48;100.00
7333;BME280;3707;43.618;25.342;2023-01-19T02:34:44;99130.91;;;15.38;100.00
7333;BME280;3707;43.618;25.342;2023-01-19T02:37:13;99144.66;;;15.50;100.00
7333;BME280;3707;43.618;25.342;2023-01-19T02:39:44;99149.00;;;15.51;100.00
7333;BME280;3707;43.618;25.342;2023-01-19T02:42:17;99139.28;;;15.56;100.00
7333;BME280;3707;43.618;25.342;2023-01-19T02:44:47;99127.16;;;15.55;100.00
7333;BME280;3707;43.618;25.342;2023-01-19T02:47:14;99149.88;;;15.50;100.00
7333;BME280;3707;43.618;25.342;2023-01-19T02:49:41;99136.91;;;15.44;100.00
7333;BME280;3707;43.618;25.342;2023-01-19T02:52:13;99154.16;;;15.54;100.00
7333;BME280;3707;43.618;25.342;2023-01-19T02:54:48;99139.44;;;15.50;100.00
7333;BME280;3707;43.618;25.342;2023-01-19T02:57:28;99145.44;;;15.53;100.00
7333;BME280;3707;43.618;25.342;2023-01-19T03:00:06;99141.09;;;15.54;100.00
7333;BME280;3707;43.618;25.342;2023-01-19T03:02:46;99141.91;;;15.56;100.00
7333;BME280;3707;43.618;25.342;2023-01-19T03:05:33;99148.91;;;15.55;100.00
7333;BME280;3707;43.618;25.342;2023-01-19T03:08:07;99154.97;;;15.56;100.00
7333;BME280;3707;43.618;25.342;2023-01-19T03:10:43;99157.56;;;15.57;100.00
7333;BME280;3707;43.618;25.342;2023-01-19T03:13:17;99158.38;;;15.61;100.00
7333;BME280;3707;43.618;25.342;2023-01-19T03:15:49;99063.63;;;15.08;100.00
7333;BME280;3707;43.618;25.342;2023-01-19T03:18:19;99079.22;;;15.11;100.00
7333;BME280;3707;43.618;25.342;2023-01-19T03:20:50;99148.09;;;15.52;100.00
7333;BME280;3707;43.618;25.342;2023-01-19T03:23:19;99152.41;;;15.53;100.00
7333;BME280;3707;43.618;25.342;2023-01-19T03:25:49;99147.97;;;15.58;100.00
7333;BME280;3707;43.618;25.342;2023-01-19T03:28:21;99153.19;;;15.58;100.00
7333;BME280;3707;43.618;25.342;2023-01-19T03:30:54;99156.84;;;15.49;100.00
7333;BME280;3707;43.618;25.342;2023-01-19T03:33:26;99159.47;;;15.49;100.00
7333;BME280;3707;43.618;25.342;2023-01-19T03:35:58;99157.72;;;15.50;100.00
7333;BME280;3707;43.618;25.342;2023-01-19T03:38:31;99155.94;;;15.52;100.00
7333;BME280;3707;43.618;25.342;2023-01-19T03:41:02;99111.09;;;15.27;100.00
7333;BME280;3707;43.618;25.342;2023-01-19T03:43:33;99153.38;;;15.49;100.00
7333;BME280;3707;43.618;25.342;2023-01-19T03:46:02;99164.78;;;15.42;100.00
7333;BME280;3707;43.618;25.342;2023-01-19T03:48:31;99169.13;;;15.43;100.00
7333;BME280;3707;43.618;25.342;2023-01-19T03:51:02;99164.84;;;15.38;100.00
7333;BME280;3707;43.618;25.342;2023-01-19T03:53:29;99152.94;;;15.24;100.00
7333;BME280;3707;43.618;25.342;2023-01-19T03:55:56;99103.91;;;14.94;100.00
7333;BME280;3707;43.618;25.342;2023-01-19T03:58:22;99137.53;;;15.12;100.00
7333;BME280;3707;43.618;25.342;2023-01-19T04:00:51;99138.38;;;15.12;100.00
7333;BME280;3707;43.618;25.342;2023-01-19T04:03:17;99163.56;;;15.15;100.00
7333;BME280;3707;43.618;25.342;2023-01-19T04:05:45;99159.31;;;15.09;100.00
7333;BME280;3707;43.618;25.342;2023-01-19T04:08:12;99164.44;;;15.15;100.00
7333;BME280;3707;43.618;25.342;2023-01-19T04:10:39;99167.94;;;15.13;100.00
7333;BME280;3707;43.618;25.342;2023-01-19T04:13:05;99155.88;;;15.06;100.00
7333;BME280;3707;43.618;25.342;2023-01-19T04:15:32;99168.06;;;15.07;100.00
7333;BME280;3707;43.618;25.342;2023-01-19T04:18:00;99132.69;;;14.91;100.00
7333;BME280;3707;43.618;25.342;2023-01-19T04:20:27;99134.50;;;14.87;100.00
7333;BME280;3707;43.618;25.342;2023-01-19T04:22:57;99162.28;;;14.88;100.00
7333;BME280;3707;43.618;25.342;2023-01-19T04:25:24;99151.16;;;14.77;100.00
7333;BME280;3707;43.618;25.342;2023-01-19T04:27:52;99165.19;;;14.73;100.00
7333;BME280;3707;43.618;25.342;2023-01-19T04:30:19;99153.13;;;14.64;100.00
7333;BME280;3707;43.618;25.342;2023-01-19T04:32:46;99114.50;;;14.32;100.00
7333;BME280;3707;43.618;25.342;2023-01-19T04:35:15;99167.06;;;14.63;100.00
7333;BME280;3707;43.618;25.342;2023-01-19T04:37:42;99160.34;;;14.49;100.00
7333;BME280;3707;43.618;25.342;2023-01-19T04:40:10;99166.34;;;14.54;100.00
7333;BME280;3707;43.618;25.342;2023-01-19T04:42:37;99139.63;;;14.39;100.00
7333;BME280;3707;43.618;25.342;2023-01-19T04:45:05;99181.19;;;14.49;100.00
7333;BME280;3707;43.618;25.342;2023-01-19T04:47:32;99176.09;;;14.43;100.00
7333;BME280;3707;43.618;25.342;2023-01-19T04:49:58;99190.06;;;14.38;100.00
7333;BME280;3707;43.618;25.342;2023-01-19T04:52:31;99157.97;;;14.30;100.00
7333;BME280;3707;43.618;25.342;2023-01-19T04:55:00;99178.81;;;14.30;100.00
7333;BME280;3707;43.618;25.342;2023-01-19T04:57:27;99193.59;;;14.34;100.00
7333;BME280;3707;43.618;25.342;2023-01-19T04:59:54;99190.09;;;14.34;100.00
7333;BME280;3707;43.618;25.342;2023-01-19T05:02:21;99154.75;;;14.15;100.00
7333;BME280;3707;43.618;25.342;2023-01-19T05:04:48;99195.50;;;14.20;100.00
7333;BME280;3707;43.618;25.342;2023-01-19T05:07:15;99198.03;;;14.25;100.00
7333;BME280;3707;43.618;25.342;2023-01-19T05:09:43;99191.88;;;14.30;100.00
7333;BME280;3707;43.618;25.342;2023-01-19T05:12:10;99190.09;;;14.35;100.00
7333;BME280;3707;43.618;25.342;2023-01-19T05:14:37;99206.56;;;14.39;100.00
7333;BME280;3707;43.618;25.342;2023-01-19T05:17:04;99187.56;;;14.29;100.00
7333;BME280;3707;43.618;25.342;2023-01-19T05:19:30;99195.22;;;14.43;100.00
7333;BME280;3707;43.618;25.342;2023-01-19T05:21:57;99209.22;;;14.37;100.00
7333;BME280;3707;43.618;25.342;2023-01-19T05:24:24;99201.25;;;14.47;100.00
7333;BME280;3707;43.618;25.342;2023-01-19T05:26:52;99211.69;;;14.47;100.00
7333;BME280;3707;43.618;25.342;2023-01-19T05:29:19;99139.25;;;14.04;100.00
7333;BME280;3707;43.618;25.342;2023-01-19T05:31:46;99213.41;;;14.48;100.00
7333;BME280;3707;43.618;25.342;2023-01-19T05:34:13;99210.75;;;14.51;100.00
7333;BME280;3707;43.618;25.342;2023-01-19T05:36:40;99196.03;;;14.45;100.00
7333;BME280;3707;43.618;25.342;2023-01-19T05:39:07;99205.47;;;14.54;100.00
7333;BME280;3707;43.618;25.342;2023-01-19T05:41:34;99217.41;;;14.70;100.00
7333;BME280;3707;43.618;25.342;2023-01-19T05:44:03;99227.81;;;14.73;100.00
7333;BME280;3707;43.618;25.342;2023-01-19T05:46:29;99243.19;;;14.88;100.00
7333;BME280;3707;43.618;25.342;2023-01-19T05:48:56;99230.75;;;15.05;100.00
7333;BME280;3707;43.618;25.342;2023-01-19T05:51:26;99219.59;;;14.96;100.00
7333;BME280;3707;43.618;25.342;2023-01-19T05:53:59;99239.47;;;15.04;100.00
7333;BME280;3707;43.618;25.342;2023-01-19T05:56:26;99217.06;;;14.91;100.00
7333;BME280;3707;43.618;25.342;2023-01-19T05:58:53;99265.63;;;15.01;100.00
7333;BME280;3707;43.618;25.342;2023-01-19T06:01:21;99253.34;;;15.06;100.00
7333;BME280;3707;43.618;25.342;2023-01-19T06:03:48;99262.94;;;15.06;100.00
7333;BME280;3707;43.618;25.342;2023-01-19T06:06:15;99238.72;;;14.96;100.00
7333;BME280;3707;43.618;25.342;2023-01-19T06:08:42;99275.16;;;15.05;100.00
7333;BME280;3707;43.618;25.342;2023-01-19T06:11:09;99257.88;;;14.97;100.00
7333;BME280;3707;43.618;25.342;2023-01-19T06:13:36;99272.44;;;15.10;100.00
7333;BME280;3707;43.618;25.342;2023-01-19T06:16:04;99272.53;;;15.05;100.00
7333;BME280;3707;43.618;25.342;2023-01-19T06:18:33;99187.22;;;14.52;100.00
7333;BME280;3707;43.618;25.342;2023-01-19T06:21:02;99259.50;;;15.04;100.00
7333;BME280;3707;43.618;25.342;2023-01-19T06:23:30;99178.53;;;14.55;100.00
7333;BME280;3707;43.618;25.342;2023-01-19T06:25:57;99258.63;;;15.03;100.00
7333;BME280;3707;43.618;25.342;2023-01-19T06:28:24;99231.06;;;14.87;100.00
7333;BME280;3707;43.618;25.342;2023-01-19T06:30:52;99261.19;;;15.08;100.00
7333;BME280;3707;43.618;25.342;2023-01-19T06:33:20;99232.69;;;14.94;100.00
7333;BME280;3707;43.618;25.342;2023-01-19T06:35:49;99247.25;;;15.06;100.00
7333;BME280;3707;43.618;25.342;2023-01-19T06:38:16;99259.50;;;15.04;100.00
7333;BME280;3707;43.618;25.342;2023-01-19T06:40:44;99225.00;;;14.85;100.00
7333;BME280;3707;43.618;25.342;2023-01-19T06:43:11;99246.38;;;15.08;100.00
7333;BME280;3707;43.618;25.342;2023-01-19T06:45:38;99227.25;;;15.06;100.00
7333;BME280;3707;43.618;25.342;2023-01-19T06:48:05;99236.88;;;15.04;100.00
7333;BME280;3707;43.618;25.342;2023-01-19T06:50:32;99227.41;;;14.97;100.00
7333;BME280;3707;43.618;25.342;2023-01-19T06:53:00;99203.22;;;14.86;100.00
7333;BME280;3707;43.618;25.342;2023-01-19T06:55:27;99238.34;;;15.19;100.00
7333;BME280;3707;43.618;25.342;2023-01-19T06:57:56;99223.56;;;15.19;100.00
7333;BME280;3707;43.618;25.342;2023-01-19T07:00:24;99254.72;;;15.30;100.00
7333;BME280;3707;43.618;25.342;2023-01-19T07:02:51;99209.59;;;15.20;100.00
7333;BME280;3707;43.618;25.342;2023-01-19T07:05:17;99254.38;;;15.50;100.00
7333;BME280;3707;43.618;25.342;2023-01-19T07:07:50;99260.28;;;15.59;100.00
7333;BME280;3707;43.618;25.342;2023-01-19T07:10:19;99231.47;;;15.64;100.00
7333;BME280;3707;43.618;25.342;2023-01-19T07:12:45;99242.44;;;15.82;100.00
7333;BME280;3707;43.618;25.342;2023-01-19T07:15:13;99249.19;;;15.93;100.00
7333;BME280;3707;43.618;25.342;2023-01-19T07:17:40;99229.38;;;15.81;100.00
7333;BME280;3707;43.618;25.342;2023-01-19T07:20:08;99270.63;;;16.11;100.00
7333;BME280;3707;43.618;25.342;2023-01-19T07:22:37;99261.03;;;16.12;100.00
7333;BME280;3707;43.618;25.342;2023-01-19T07:25:04;99258.91;;;16.29;100.00
7333;BME280;3707;43.618;25.342;2023-01-19T07:27:33;99252.94;;;16.22;99.81
7333;BME280;3707;43.618;25.342;2023-01-19T07:29:59;99259.63;;;16.35;98.84
7333;BME280;3707;43.618;25.342;2023-01-19T07:32:27;99242.75;;;16.49;97.88
7333;BME280;3707;43.618;25.342;2023-01-19T07:34:54;99266.25;;;16.52;97.10
7333;BME280;3707;43.618;25.342;2023-01-19T07:37:20;99240.16;;;16.49;96.63
7333;BME280;3707;43.618;25.342;2023-01-19T07:39:47;99245.16;;;16.61;95.74
7333;BME280;3707;43.618;25.342;2023-01-19T07:42:14;99256.34;;;16.66;96.00
7333;BME280;3707;43.618;25.342;2023-01-19T07:44:42;99263.38;;;16.65;96.21
7333;BME280;3707;43.618;25.342;2023-01-19T07:47:09;99267.75;;;16.63;96.14
7333;BME280;3707;43.618;25.342;2023-01-19T07:49:37;99266.91;;;16.63;96.01
7333;BME280;3707;43.618;25.342;2023-01-19T07:52:04;99276.09;;;16.80;95.39
7333;BME280;3707;43.618;25.342;2023-01-19T07:54:31;99257.03;;;16.74;95.72
7333;BME280;3707;43.618;25.342;2023-01-19T07:56:58;99278.03;;;16.72;96.51
7333;BME280;3707;43.618;25.342;2023-01-19T07:59:26;99277.09;;;16.75;96.17
7333;BME280;3707;43.618;25.342;2023-01-19T08:01:56;99296.00;;;16.88;95.86
7333;BME280;3707;43.618;25.342;2023-01-19T08:04:23;99287.16;;;16.93;95.46
7333;BME280;3707;43.618;25.342;2023-01-19T08:06:50;99291.50;;;16.94;95.51
7333;BME280;3707;43.618;25.342;2023-01-19T08:09:17;99293.88;;;17.05;94.32
7333;BME280;3707;43.618;25.342;2023-01-19T08:11:44;99289.63;;;16.99;94.26
7333;BME280;3707;43.618;25.342;2023-01-19T08:14:11;99279.22;;;16.96;94.35
7333;BME280;3707;43.618;25.342;2023-01-19T08:16:37;99291.97;;;17.11;94.09
7333;BME280;3707;43.618;25.342;2023-01-19T08:19:05;99301.22;;;17.26;92.71
7333;BME280;3707;43.618;25.342;2023-01-19T08:21:32;99290.91;;;17.18;91.42
7333;BME280;3707;43.618;25.342;2023-01-19T08:24:00;99289.69;;;17.31;90.07
7333;BME280;3707;43.618;25.342;2023-01-19T08:26:29;99298.84;;;17.51;90.21
7333;BME280;3707;43.618;25.342;2023-01-19T08:28:57;99296.94;;;17.57;90.24
7333;BME280;3707;43.618;25.342;2023-01-19T08:31:24;99297.72;;;17.61;90.00
7333;BME280;3707;43.618;25.342;2023-01-19T08:33:51;99282.19;;;17.52;90.09
7333;BME280;3707;43.618;25.342;2023-01-19T08:36:20;99296.50;;;17.74;89.22
7333;BME280;3707;43.618;25.342;2023-01-19T08:38:48;99289.28;;;17.82;88.01
7333;BME280;3707;43.618;25.342;2023-01-19T08:41:14;99295.91;;;17.95;86.67
7333;BME280;3707;43.618;25.342;2023-01-19T08:43:42;99290.44;;;18.04;86.15
7333;BME280;3707;43.618;25.342;2023-01-19T08:46:09;99295.31;;;18.16;85.72
7333;BME280;3707;43.618;25.342;2023-01-19T08:48:35;99216.84;;;17.78;83.54
7333;BME280;3707;43.618;25.342;2023-01-19T08:51:02;99281.47;;;18.11;83.53
7333;BME280;3707;43.618;25.342;2023-01-19T08:53:30;99296.91;;;18.22;82.03
7333;BME280;3707;43.618;25.342;2023-01-19T08:55:57;99295.16;;;18.22;80.49
7333;BME280;3707;43.618;25.342;2023-01-19T08:58:26;99283.31;;;18.39;79.45
7333;BME280;3707;43.618;25.342;2023-01-19T09:00:53;99278.41;;;18.26;78.49
7333;BME280;3707;43.618;25.342;2023-01-19T09:03:20;99295.25;;;18.49;76.64
7333;BME280;3707;43.618;25.342;2023-01-19T09:05:47;99273.69;;;18.38;76.16
7333;BME280;3707;43.618;25.342;2023-01-19T09:08:14;99287.31;;;18.52;76.37
7333;BME280;3707;43.618;25.342;2023-01-19T09:10:46;99284.09;;;18.71;75.20
7333;BME280;3707;43.618;25.342;2023-01-19T09:13:13;99272.81;;;18.68;74.81
7333;BME280;3707;43.618;25.342;2023-01-19T09:15:41;99276.88;;;18.78;74.33
7333;BME280;3707;43.618;25.342;2023-01-19T09:18:10;99249.88;;;18.73;73.00
7333;BME280;3707;43.618;25.342;2023-01-19T09:20:38;99273.03;;;18.90;72.62
7333;BME280;3707;43.618;25.342;2023-01-19T09:23:07;99280.28;;;18.81;70.80
7333;BME280;3707;43.618;25.342;2023-01-19T09:25:35;99282.47;;;18.95;70.63
7333;BME280;3707;43.618;25.342;2023-01-19T09:28:04;99276.41;;;18.93;70.28
7333;BME280;3707;43.618;25.342;2023-01-19T09:30:32;99250.41;;;18.84;70.37
7333;BME280;3707;43.618;25.342;2023-01-19T09:33:02;99273.22;;;19.10;69.06
7333;BME280;3707;43.618;25.342;2023-01-19T09:35:31;99266.22;;;19.10;67.10
7333;BME280;3707;43.618;25.342;2023-01-19T09:37:57;99271.56;;;19.07;67.42
7333;BME280;3707;43.618;25.342;2023-01-19T09:40:25;99290.00;;;19.06;67.08
7333;BME280;3707;43.618;25.342;2023-01-19T09:42:54;99259.94;;;19.14;66.72
7333;BME280;3707;43.618;25.342;2023-01-19T09:45:33;99260.63;;;19.19;65.64
7333;BME280;3707;43.618;25.342;2023-01-19T09:48:03;99255.19;;;19.25;65.43
7333;BME280;3707;43.618;25.342;2023-01-19T09:50:34;99245.38;;;19.30;65.40
7333;BME280;3707;43.618;25.342;2023-01-19T09:53:08;99260.66;;;19.46;65.20
7333;BME280;3707;43.618;25.342;2023-01-19T09:55:39;99250.88;;;19.51;65.28
7333;BME280;3707;43.618;25.342;2023-01-19T09:58:10;99227.38;;;19.45;63.51
7333;BME280;3707;43.618;25.342;2023-01-19T10:00:39;99246.09;;;19.62;62.06
7333;BME280;3707;43.618;25.342;2023-01-19T10:03:13;99238.22;;;19.62;62.69
7333;BME280;3707;43.618;25.342;2023-01-19T10:05:44;99206.41;;;19.68;61.55
7333;BME280;3707;43.618;25.342;2023-01-19T10:08:17;99225.94;;;19.86;61.03
7333;BME280;3707;43.618;25.342;2023-01-19T10:10:51;99225.19;;;19.82;60.78
7333;BME280;3707;43.618;25.342;2023-01-19T10:13:28;99205.47;;;19.94;60.58
7333;BME280;3707;43.618;25.342;2023-01-19T10:16:06;99202.72;;;19.97;59.31
7333;BME280;3707;43.618;25.342;2023-01-19T10:18:42;99213.03;;;20.03;58.91
7333;BME280;3707;43.618;25.342;2023-01-19T10:21:18;99212.56;;;20.15;57.03
7333;BME280;3707;43.618;25.342;2023-01-19T10:23:49;99192.00;;;20.01;56.75
7333;BME280;3707;43.618;25.342;2023-01-19T10:26:20;99185.97;;;19.99;54.85
7333;BME280;3707;43.618;25.342;2023-01-19T10:28:51;99176.91;;;20.06;54.13
7333;BME280;3707;43.618;25.342;2023-01-19T10:31:22;99199.78;;;20.29;53.83
7333;BME280;3707;43.618;25.342;2023-01-19T10:33:50;99198.53;;;20.38;53.24
7333;BME280;3707;43.618;25.342;2023-01-19T10:36:19;99183.72;;;20.35;52.29
7333;BME280;3707;43.618;25.342;2023-01-19T10:38:46;99165.47;;;20.31;52.35
7333;BME280;3707;43.618;25.342;2023-01-19T10:41:17;99180.09;;;20.38;52.22
7333;BME280;3707;43.618;25.342;2023-01-19T10:43:46;99187.66;;;20.47;51.76
7333;BME280;3707;43.618;25.342;2023-01-19T10:46:18;99193.41;;;20.56;51.31
7333;BME280;3707;43.618;25.342;2023-01-19T10:48:49;99170.13;;;20.46;50.23
7333;BME280;3707;43.618;25.342;2023-01-19T10:51:16;99179.25;;;20.59;50.56
7333;BME280;3707;43.618;25.342;2023-01-19T10:53:53;99186.56;;;20.74;49.67
7333;BME280;3707;43.618;25.342;2023-01-19T10:56:22;99183.31;;;20.67;50.25
7333;BME280;3707;43.618;25.342;2023-01-19T10:58:49;99190.00;;;20.54;50.08
7333;BME280;3707;43.618;25.342;2023-01-19T11:01:19;99188.75;;;20.63;50.63
7333;BME280;3707;43.618;25.342;2023-01-19T11:03:47;99164.69;;;20.50;51.15
7333;BME280;3707;43.618;25.342;2023-01-19T11:06:23;99173.81;;;20.42;50.43
7333;BME280;3707;43.618;25.342;2023-01-19T11:08:51;99182.28;;;20.50;51.29
7333;BME280;3707;43.618;25.342;2023-01-19T11:11:19;99163.66;;;20.54;50.92
7333;BME280;3707;43.618;25.342;2023-01-19T11:14:03;99179.09;;;20.63;49.40
7333;BME280;3707;43.618;25.342;2023-01-19T11:16:33;99177.00;;;20.71;49.17
7333;BME280;3707;43.618;25.342;2023-01-19T11:19:03;99154.94;;;20.74;49.46
7333;BME280;3707;43.618;25.342;2023-01-19T11:21:32;99124.34;;;20.50;49.14
7333;BME280;3707;43.618;25.342;2023-01-19T11:24:00;99167.22;;;20.95;49.50
7333;BME280;3707;43.618;25.342;2023-01-19T11:26:32;99135.13;;;20.86;49.95
7333;BME280;3707;43.618;25.342;2023-01-19T11:29:02;99102.28;;;20.52;50.03
7333;BME280;3707;43.618;25.342;2023-01-19T11:31:32;99139.22;;;20.72;49.59
7333;BME280;3707;43.618;25.342;2023-01-19T11:34:01;99134.69;;;20.76;48.61
7333;BME280;3707;43.618;25.342;2023-01-19T11:36:31;99151.38;;;20.97;47.84
7333;BME280;3707;43.618;25.342;2023-01-19T11:39:00;99149.03;;;21.11;47.72
7333;BME280;3707;43.618;25.342;2023-01-19T11:41:30;99150.69;;;20.92;47.41
7333;BME280;3707;43.618;25.342;2023-01-19T11:44:01;99133.38;;;20.86;47.69
7333;BME280;3707;43.618;25.342;2023-01-19T11:46:38;99134.56;;;20.99;47.32
7333;BME280;3707;43.618;25.342;2023-01-19T11:49:12;99131.97;;;20.98;46.70
7333;BME280;3707;43.618;25.342;2023-01-19T11:51:49;99131.00;;;21.00;46.19
7333;BME280;3707;43.618;25.342;2023-01-19T11:54:19;99119.66;;;20.98;45.82
7333;BME280;3707;43.618;25.342;2023-01-19T11:56:49;99140.91;;;21.15;46.40
7333;BME280;3707;43.618;25.342;2023-01-19T11:59:17;99138.94;;;21.20;46.60
7333;BME280;3707;43.618;25.342;2023-01-19T12:01:46;99136.84;;;21.29;45.85
7333;BME280;3707;43.618;25.342;2023-01-19T12:04:18;99138.41;;;21.33;47.05
7333;BME280;3707;43.618;25.342;2023-01-19T12:06:53;99136.97;;;21.25;46.69
7333;BME280;3707;43.618;25.342;2023-01-19T12:09:23;99134.25;;;21.27;46.95
7333;BME280;3707;43.618;25.342;2023-01-19T12:11:55;99114.75;;;21.31;46.65
7333;BME280;3707;43.618;25.342;2023-01-19T12:14:25;99131.41;;;21.32;46.88
7333;BME280;3707;43.618;25.342;2023-01-19T12:16:54;99114.91;;;21.06;46.58
7333;BME280;3707;43.618;25.342;2023-01-19T12:19:26;99103.44;;;20.87;47.09
7333;BME280;3707;43.618;25.342;2023-01-19T12:21:56;99136.00;;;21.06;46.84
7333;BME280;3707;43.618;25.342;2023-01-19T12:24:27;99105.22;;;21.07;46.74
7333;BME280;3707;43.618;25.342;2023-01-19T12:26:57;99120.81;;;21.13;47.33
7333;BME280;3707;43.618;25.342;2023-01-19T12:29:28;99117.84;;;21.20;46.96
7333;BME280;3707;43.618;25.342;2023-01-19T12:32:18;99127.41;;;21.23;47.36
7333;BME280;3707;43.618;25.342;2023-01-19T12:34:55;99129.88;;;21.26;47.25
7333;BME280;3707;43.618;25.342;2023-01-19T12:37:34;99126.16;;;21.32;47.21
7333;BME280;3707;43.618;25.342;2023-01-19T12:40:15;99100.81;;;21.07;47.76
7333;BME280;3707;43.618;25.342;2023-01-19T12:42:43;99122.81;;;21.06;48.54
7333;BME280;3707;43.618;25.342;2023-01-19T12:45:13;99131.78;;;21.02;48.54
7333;BME280;3707;43.618;25.342;2023-01-19T12:47:49;99130.50;;;21.12;48.25
7333;BME280;3707;43.618;25.342;2023-01-19T12:50:18;99116.78;;;21.04;47.33
7333;BME280;3707;43.618;25.342;2023-01-19T12:52:50;99134.06;;;21.11;47.33
7333;BME280;3707;43.618;25.342;2023-01-19T12:55:24;99127.19;;;21.07;46.95
7333;BME280;3707;43.618;25.342;2023-01-19T12:57:58;99112.75;;;20.96;47.22
7333;BME280;3707;43.618;25.342;2023-01-19T13:00:35;99123.88;;;21.02;47.03
7333;BME280;3707;43.618;25.342;2023-01-19T13:03:05;99105.16;;;20.88;47.02
7333;BME280;3707;43.618;25.342;2023-01-19T13:05:52;99132.19;;;20.93;47.29
7333;BME280;3707;43.618;25.342;2023-01-19T13:08:22;99134.69;;;20.96;47.06
7333;BME280;3707;43.618;25.342;2023-01-19T13:17:10;99144.75;;;20.87;48.43
7333;BME280;3707;43.618;25.342;2023-01-19T13:20:01;99141.13;;;20.89;48.37
7333;BME280;3707;43.618;25.342;2023-01-19T13:22:48;99139.38;;;20.90;47.67